South Heart, North Dakota
Current Conditions -  °F | °C
As of 11:56 PM on Tuesday 25 Nov 2014 (Local Time) from KDIK Reporting Station
Overcast Overcast  
Wind Chill:   Ceiling: 800
Heat Index: 19°   Visibility: 10mi
Dew Point: 15°   Wind: 10mph
Humidity: 85%   Direction: 350°N
Pressure: 30.13"   Gusts: NA
Location:  46.86°N, 102.99°W
Report Text: KDIK 260656Z AUTO 35009KT 10SM OVC008 M07/M09 A3013 RMK AO2 SLP236 T10721094 400221078
Loading
Personal Weather Stations






























Interactive Weather Map New forecast layout! Learn more

10-Day Weather Forecast

Advertisements
Track Severe Weather on mobile